createdAt,value
2017-10-25T00:00:53.008Z,50.90
2017-10-25T00:03:22.886Z,44.63
2017-10-25T00:05:52.809Z,56.13
2017-10-25T00:08:23.236Z,49.80
2017-10-25T00:10:53.107Z,46.60
2017-10-25T00:13:23.017Z,47.70
2017-10-25T00:15:52.879Z,48.30
2017-10-25T00:18:22.762Z,44.43
2017-10-25T00:20:52.656Z,45.60
2017-10-25T00:23:22.805Z,49.17
2017-10-25T00:25:52.655Z,43.10
2017-10-25T00:28:22.577Z,42.00
2017-10-25T00:30:52.496Z,40.60
2017-10-25T00:33:22.710Z,48.13
2017-10-25T00:35:52.563Z,44.77
2017-10-25T00:38:22.459Z,41.17
2017-10-25T00:40:52.489Z,42.07
2017-10-25T00:43:22.880Z,42.80
2017-10-25T00:45:52.741Z,44.73
2017-10-25T00:48:22.629Z,39.13
2017-10-25T00:50:52.490Z,42.73
2017-10-25T00:53:22.642Z,38.30
2017-10-25T00:55:52.520Z,43.03
2017-10-25T00:58:22.779Z,43.53
2017-10-25T01:00:52.669Z,42.70
2017-10-25T01:03:22.601Z,38.73
2017-10-25T01:05:52.466Z,57.87
2017-10-25T01:08:22.341Z,44.03
2017-10-25T01:10:52.182Z,45.60
2017-10-25T01:13:22.047Z,40.93
2017-10-25T01:15:51.901Z,43.03
2017-10-25T01:18:21.817Z,38.80
2017-10-25T01:20:52.101Z,35.23
2017-10-25T01:23:21.977Z,37.60
2017-10-25T01:25:52.181Z,44.77
2017-10-25T01:28:22.095Z,46.90
2017-10-25T01:30:52.369Z,45.03
2017-10-25T01:33:22.268Z,41.40
2017-10-25T01:35:52.505Z,43.67
2017-10-25T01:38:22.378Z,45.57
2017-10-25T01:40:52.265Z,44.40
2017-10-25T01:43:22.161Z,38.40
2017-10-25T01:45:52.050Z,41.73
2017-10-25T01:48:22.273Z,38.23
2017-10-25T01:50:52.185Z,37.40
2017-10-25T01:53:22.099Z,37.90
2017-10-25T01:55:52.047Z,36.40
2017-10-25T01:58:22.334Z,34.80
2017-10-25T02:00:52.209Z,43.13
2017-10-25T02:03:22.125Z,41.67
2017-10-25T02:05:52.049Z,40.77
2017-10-25T02:08:22.338Z,43.67
2017-10-25T02:10:52.233Z,47.17
2017-10-25T02:13:22.149Z,47.40
2017-10-25T02:15:52.052Z,63.80
2017-10-25T02:18:21.956Z,42.50
2017-10-25T02:20:51.821Z,47.23
2017-10-25T02:23:21.747Z,43.87
2017-10-25T02:25:51.622Z,46.57
2017-10-25T02:28:21.814Z,38.10
2017-10-25T02:30:51.697Z,41.40
2017-10-25T02:33:21.601Z,45.87
2017-10-25T02:35:51.475Z,40.40
2017-10-25T02:38:21.672Z,44.47
2017-10-25T02:40:51.534Z,40.57
2017-10-25T02:43:21.706Z,40.90
2017-10-25T02:45:51.559Z,44.40
2017-10-25T02:48:21.734Z,42.03
2017-10-25T02:50:51.642Z,48.87
2017-10-25T02:53:21.513Z,40.33
2017-10-25T02:55:51.376Z,44.37
2017-10-25T02:58:21.257Z,41.70
2017-10-25T03:00:51.378Z,36.60
2017-10-25T03:03:21.232Z,42.37
2017-10-25T03:05:51.437Z,38.93
2017-10-25T03:08:21.368Z,35.67
2017-10-25T03:10:51.260Z,38.60
2017-10-25T03:13:21.119Z,43.37
2017-10-25T03:15:51.024Z,36.30
2017-10-25T03:18:21.167Z,40.03
2017-10-25T03:20:51.050Z,33.50
2017-10-25T03:23:20.921Z,30.83
2017-10-25T03:25:50.780Z,35.17
2017-10-25T03:28:20.921Z,37.03
2017-10-25T03:30:50.797Z,39.07
2017-10-25T03:33:21.010Z,33.27
2017-10-25T03:35:50.878Z,33.70
2017-10-25T03:38:20.847Z,29.17
2017-10-25T03:40:50.766Z,31.50
2017-10-25T03:43:20.912Z,31.83
2017-10-25T03:45:50.809Z,32.20
2017-10-25T03:48:20.710Z,28.37
2017-10-25T03:50:50.679Z,25.33
2017-10-25T03:53:20.929Z,32.90
2017-10-25T03:55:50.788Z,25.20
2017-10-25T03:58:20.950Z,29.47
2017-10-25T04:00:50.850Z,24.77
2017-10-25T04:03:20.745Z,25.03
2017-10-25T04:05:50.613Z,27.40
2017-10-25T04:08:20.819Z,24.77
2017-10-25T04:10:50.677Z,22.70
2017-10-25T04:13:20.843Z,23.70
2017-10-25T04:15:50.721Z,18.57
2017-10-25T04:18:20.625Z,21.03
2017-10-25T04:20:50.485Z,19.97
2017-10-25T04:23:20.639Z,15.50
2017-10-25T04:25:50.493Z,17.23
2017-10-25T04:28:20.388Z,18.57
2017-10-25T04:30:50.310Z,15.53
2017-10-25T04:33:20.181Z,15.17
2017-10-25T04:35:50.049Z,12.87
2017-10-25T04:38:19.929Z,13.20
2017-10-25T04:40:50.062Z,13.33
2017-10-25T04:43:19.921Z,14.67
2017-10-25T04:45:50.138Z,15.00
2017-10-25T04:48:20.136Z,13.40
2017-10-25T04:50:50.008Z,11.77
2017-10-25T04:53:19.913Z,12.40
2017-10-25T04:55:50.086Z,14.47
2017-10-25T04:58:19.941Z,13.10
2017-10-25T05:00:49.829Z,13.80
2017-10-25T05:03:19.690Z,14.30
2017-10-25T05:05:49.846Z,14.30
2017-10-25T05:08:19.717Z,20.53
2017-10-25T05:10:49.889Z,17.70
2017-10-25T05:13:19.760Z,16.60
2017-10-25T05:15:49.653Z,19.23
2017-10-25T05:18:19.498Z,19.03
2017-10-25T05:20:49.708Z,16.80
2017-10-25T05:23:19.564Z,17.27
2017-10-25T05:25:49.774Z,23.87
2017-10-25T05:28:19.663Z,20.20
2017-10-25T05:30:49.535Z,18.53
2017-10-25T05:33:19.401Z,18.20
2017-10-25T05:35:49.285Z,19.47
2017-10-25T05:38:19.158Z,17.90
2017-10-25T05:40:49.014Z,17.53
2017-10-25T05:43:19.171Z,22.30
2017-10-25T05:45:49.043Z,17.37
2017-10-25T05:48:19.312Z,17.00
2017-10-25T05:50:49.176Z,17.00
2017-10-25T05:53:19.335Z,22.90
2017-10-25T05:55:49.198Z,15.27
2017-10-25T05:58:19.095Z,17.13
2017-10-25T06:00:48.956Z,21.03
2017-10-25T06:03:18.826Z,15.00
2017-10-25T06:05:49.031Z,15.63
2017-10-25T06:08:18.906Z,18.73
2017-10-25T06:10:48.834Z,15.57
2017-10-25T06:13:18.688Z,15.63
2017-10-25T06:15:48.845Z,17.50
2017-10-25T06:18:18.759Z,20.00
2017-10-25T06:20:48.901Z,23.80
2017-10-25T06:23:18.836Z,16.57
2017-10-25T06:25:49.038Z,16.83
2017-10-25T06:28:18.913Z,19.27
2017-10-25T06:30:49.166Z,15.40
2017-10-25T06:33:19.026Z,15.77
2017-10-25T06:35:49.246Z,16.07
2017-10-25T06:38:19.141Z,21.00
2017-10-25T06:40:49.006Z,23.73
2017-10-25T06:43:18.886Z,19.67
2017-10-25T06:45:48.774Z,21.17
2017-10-25T06:48:18.678Z,18.30
2017-10-25T06:50:48.567Z,19.07
2017-10-25T06:53:18.441Z,17.03
2017-10-25T06:55:48.579Z,17.17
2017-10-25T06:58:18.443Z,22.93
2017-10-25T07:00:48.332Z,16.37
2017-10-25T07:03:18.239Z,22.03
2017-10-25T07:05:48.107Z,15.23
2017-10-25T07:08:17.987Z,15.87
2017-10-25T07:10:47.928Z,16.30
2017-10-25T07:13:18.373Z,19.20
2017-10-25T07:15:48.310Z,18.70
2017-10-25T07:18:18.462Z,19.37
2017-10-25T07:20:48.340Z,16.10
2017-10-25T07:23:18.231Z,15.60
2017-10-25T07:25:48.135Z,19.10
2017-10-25T07:28:17.998Z,15.30
2017-10-25T07:30:48.173Z,15.93
2017-10-25T07:33:18.028Z,13.70
2017-10-25T07:35:47.961Z,20.27
2017-10-25T07:38:17.841Z,17.67
2017-10-25T07:40:47.999Z,16.00
2017-10-25T07:43:17.861Z,19.13
2017-10-25T07:45:48.015Z,17.87
2017-10-25T07:48:17.946Z,16.70
2017-10-25T07:50:48.157Z,18.60
2017-10-25T07:53:18.010Z,18.20
2017-10-25T07:55:48.149Z,19.60
2017-10-25T07:58:17.994Z,19.73
2017-10-25T08:00:48.138Z,19.53
2017-10-25T08:03:18.012Z,22.47
2017-10-25T08:05:48.025Z,19.97
2017-10-25T08:08:17.878Z,18.10
2017-10-25T08:10:48.180Z,18.77
2017-10-25T08:13:18.082Z,20.03
2017-10-25T08:15:48.219Z,19.23
2017-10-25T08:18:18.115Z,19.30
2017-10-25T08:20:47.990Z,17.37
2017-10-25T08:23:17.856Z,19.30
2017-10-25T08:25:47.736Z,24.17
2017-10-25T08:28:17.602Z,17.43
2017-10-25T08:30:47.484Z,16.67
2017-10-25T08:33:17.345Z,16.77
2017-10-25T08:35:47.273Z,16.17
2017-10-25T08:38:17.130Z,17.47
2017-10-25T08:40:47.005Z,14.37
2017-10-25T08:43:17.020Z,14.90
2017-10-25T08:45:46.980Z,16.63
2017-10-25T08:48:16.910Z,12.37
2017-10-25T08:50:46.830Z,18.10
2017-10-25T08:53:16.765Z,12.13
2017-10-25T08:55:46.616Z,11.47
2017-10-25T08:58:16.847Z,13.10
2017-10-25T09:00:46.758Z,12.23
2017-10-25T09:03:16.636Z,17.27
2017-10-25T09:05:46.483Z,8.80
2017-10-25T09:08:16.515Z,12.20
2017-10-25T09:10:46.385Z,10.90
2017-10-25T09:13:16.247Z,6.30
2017-10-25T09:15:46.226Z,12.87
2017-10-25T09:18:16.093Z,8.13
2017-10-25T09:20:46.021Z,8.10
2017-10-25T09:23:15.881Z,7.73
2017-10-25T09:25:45.764Z,8.13
2017-10-25T09:28:15.634Z,4.70
2017-10-25T09:30:45.520Z,7.03
2017-10-25T09:33:15.481Z,6.87
2017-10-25T09:35:45.344Z,5.17
2017-10-25T09:38:15.194Z,6.83
2017-10-25T09:40:45.073Z,7.07
2017-10-25T09:43:14.942Z,6.53
2017-10-25T09:45:44.860Z,5.20
2017-10-25T09:48:14.897Z,6.47
2017-10-25T09:50:44.835Z,4.77
2017-10-25T09:53:14.769Z,9.77
2017-10-25T09:55:44.661Z,7.57
2017-10-25T09:58:14.633Z,6.50
2017-10-25T10:00:44.504Z,5.93
2017-10-25T10:03:14.509Z,13.20
2017-10-25T10:05:45.236Z,9.33
2017-10-25T10:08:15.113Z,11.50
2017-10-25T10:10:45.021Z,9.73
2017-10-25T10:13:15.106Z,7.77
2017-10-25T10:15:45.015Z,7.37
2017-10-25T10:18:14.929Z,12.83
2017-10-25T10:20:44.794Z,8.93
2017-10-25T10:23:14.701Z,5.27
2017-10-25T10:25:44.774Z,10.70
2017-10-25T10:28:14.659Z,10.70
2017-10-25T10:30:44.515Z,7.33
2017-10-25T10:33:14.642Z,7.43
2017-10-25T10:35:44.560Z,12.30
2017-10-25T10:38:14.431Z,8.27
2017-10-25T10:40:44.352Z,11.30
2017-10-25T10:43:14.445Z,7.30
2017-10-25T10:45:44.302Z,8.83
2017-10-25T10:48:14.175Z,8.03
2017-10-25T10:50:44.048Z,4.97
2017-10-25T10:53:14.029Z,4.93
2017-10-25T10:55:43.922Z,10.23
2017-10-25T10:58:13.789Z,8.83
2017-10-25T11:00:43.848Z,9.67
2017-10-25T11:03:13.780Z,9.53
2017-10-25T11:05:43.745Z,6.97
2017-10-25T11:08:13.677Z,12.07
2017-10-25T11:10:43.561Z,6.87
2017-10-25T11:13:13.410Z,9.50
2017-10-25T11:15:43.353Z,6.40
2017-10-25T11:18:13.245Z,7.00
2017-10-25T11:20:43.234Z,13.40
2017-10-25T11:23:13.114Z,11.87
2017-10-25T11:25:42.975Z,5.70
2017-10-25T11:28:12.915Z,12.23
2017-10-25T11:30:42.776Z,8.60
2017-10-25T11:33:12.630Z,6.73
2017-10-25T11:35:42.477Z,7.03
2017-10-25T11:38:12.350Z,8.73
2017-10-25T11:40:42.262Z,16.60
2017-10-25T11:43:12.181Z,6.27
2017-10-25T11:45:42.089Z,8.87
2017-10-25T11:48:11.942Z,8.17
2017-10-25T11:50:41.864Z,7.17
2017-10-25T11:53:11.743Z,10.83
2017-10-25T11:55:41.657Z,7.20
2017-10-25T11:58:11.518Z,9.20
2017-10-25T12:00:41.690Z,8.57
2017-10-25T12:03:11.583Z,9.03
2017-10-25T12:05:41.472Z,9.37
2017-10-25T12:08:11.325Z,7.70
2017-10-25T12:10:41.328Z,6.43
2017-10-25T12:13:11.183Z,7.20
2017-10-25T12:15:41.079Z,7.47
2017-10-25T12:18:10.971Z,7.47
2017-10-25T12:20:40.829Z,7.70
2017-10-25T12:23:10.715Z,7.53
2017-10-25T12:25:40.586Z,10.90
2017-10-25T12:28:10.479Z,9.60
2017-10-25T12:30:40.350Z,11.60
2017-10-25T12:33:10.237Z,6.70
2017-10-25T12:35:40.097Z,9.10
2017-10-25T12:38:09.945Z,8.23
2017-10-25T12:40:39.856Z,8.60
2017-10-25T12:43:09.715Z,7.60
2017-10-25T12:45:39.573Z,7.50
2017-10-25T12:48:09.442Z,8.30
2017-10-25T12:50:39.335Z,10.97
2017-10-25T12:53:09.207Z,7.10
2017-10-25T12:55:39.079Z,8.50
2017-10-25T12:58:08.966Z,10.20
2017-10-25T13:00:38.841Z,13.73
2017-10-25T13:03:08.749Z,5.90
2017-10-25T13:05:38.606Z,10.57
2017-10-25T13:08:08.494Z,8.97
2017-10-25T13:11:04.257Z,5.60
2017-10-25T13:13:37.742Z,8.53
2017-10-25T13:16:15.733Z,11.23
2017-10-25T13:18:45.614Z,5.90
2017-10-25T13:21:15.477Z,7.33
2017-10-25T13:23:45.376Z,11.03
2017-10-25T13:26:15.240Z,19.27
2017-10-25T13:28:45.189Z,6.00
2017-10-25T13:31:15.107Z,11.40
2017-10-25T13:33:44.972Z,9.67
2017-10-25T13:36:15.002Z,20.70
2017-10-25T13:38:44.877Z,20.63
2017-10-25T13:41:14.790Z,11.40
2017-10-25T13:43:44.656Z,8.57
2017-10-25T13:46:14.539Z,7.97
2017-10-25T13:48:44.436Z,13.47
2017-10-25T13:51:14.394Z,8.27
2017-10-25T13:53:44.294Z,6.37
2017-10-25T13:56:14.177Z,12.90
2017-10-25T13:58:44.151Z,9.13
2017-10-25T14:01:14.028Z,7.50
2017-10-25T14:03:43.977Z,12.73
2017-10-25T14:06:13.877Z,6.37
2017-10-25T14:08:43.778Z,5.63
2017-10-25T14:11:13.622Z,9.67
2017-10-25T14:13:43.501Z,6.43
2017-10-25T14:16:14.022Z,8.03
2017-10-25T14:18:43.972Z,3.70
2017-10-25T14:21:13.893Z,6.60
2017-10-25T14:23:43.818Z,4.03
2017-10-25T14:26:25.431Z,7.93
2017-10-25T14:28:55.319Z,10.17
2017-10-25T14:31:25.182Z,11.30
2017-10-25T14:33:55.170Z,5.53
2017-10-25T14:36:25.113Z,12.60
2017-10-25T14:38:55.004Z,10.20
2017-10-25T14:41:25.140Z,9.23
2017-10-25T14:43:55.048Z,8.33
2017-10-25T14:46:24.987Z,9.33
2017-10-25T14:48:54.931Z,7.23
2017-10-25T14:51:24.791Z,11.80
2017-10-25T14:53:54.669Z,7.83
2017-10-25T14:56:24.846Z,15.40
2017-10-25T14:58:54.728Z,4.83
2017-10-25T15:01:24.588Z,4.60
2017-10-25T15:03:54.487Z,10.40
2017-10-25T15:06:24.379Z,6.03
2017-10-25T15:08:54.261Z,8.33
2017-10-25T15:11:24.163Z,8.33
2017-10-25T15:13:54.030Z,4.13
2017-10-25T15:16:23.919Z,7.97
2017-10-25T15:18:53.847Z,5.43
2017-10-25T15:21:23.763Z,13.50
2017-10-25T15:23:53.744Z,6.77
2017-10-25T15:26:23.701Z,3.83
2017-10-25T15:28:53.634Z,8.10
2017-10-25T15:31:23.527Z,12.83
2017-10-25T15:33:53.389Z,9.27
2017-10-25T15:36:24.058Z,10.10
2017-10-25T15:38:53.932Z,13.57
2017-10-25T15:41:23.826Z,11.77
2017-10-25T15:43:53.886Z,8.20
2017-10-25T15:46:23.887Z,9.67
2017-10-25T15:48:53.784Z,6.87
2017-10-25T15:51:23.768Z,8.90
2017-10-25T15:53:53.629Z,18.80
2017-10-25T15:56:23.543Z,7.33
2017-10-25T15:58:53.448Z,10.90
2017-10-25T16:01:23.351Z,12.00
2017-10-25T16:03:53.263Z,7.67
2017-10-25T16:06:23.139Z,6.43
2017-10-25T16:08:53.019Z,7.00
2017-10-25T16:11:23.044Z,9.13
2017-10-25T16:13:53.103Z,8.00
2017-10-25T16:16:23.009Z,7.00
2017-10-25T16:18:52.932Z,11.83
2017-10-25T16:21:22.929Z,13.17
2017-10-25T16:23:52.816Z,5.77
2017-10-25T16:26:22.729Z,7.10
2017-10-25T16:28:52.642Z,7.93
2017-10-25T16:31:22.722Z,7.03
2017-10-25T16:33:52.749Z,12.10
2017-10-25T16:36:22.715Z,16.60
2017-10-25T16:38:52.701Z,6.60
2017-10-25T16:41:22.591Z,13.00
2017-10-25T16:43:52.620Z,6.33
2017-10-25T16:46:22.474Z,6.03
2017-10-25T16:48:52.431Z,8.90
2017-10-25T16:51:22.357Z,8.77
2017-10-25T16:53:52.236Z,8.17
2017-10-25T16:56:22.133Z,12.20
2017-10-25T16:58:51.989Z,7.40
2017-10-25T17:01:21.928Z,5.90
2017-10-25T17:03:51.870Z,20.50
2017-10-25T17:06:21.887Z,5.40
2017-10-25T17:08:52.430Z,6.67
2017-10-25T17:11:26.305Z,8.97
2017-10-25T17:13:56.573Z,10.77
2017-10-25T17:16:26.494Z,17.67
2017-10-25T17:18:56.440Z,13.17
2017-10-25T17:21:26.346Z,13.33
2017-10-25T17:23:56.239Z,13.20
2017-10-25T17:26:26.118Z,11.83
2017-10-25T17:28:56.044Z,7.90
2017-10-25T17:31:25.929Z,7.03
2017-10-25T17:33:55.889Z,10.53
2017-10-25T17:36:25.765Z,7.17
2017-10-25T17:38:55.654Z,10.33
2017-10-25T17:41:25.531Z,10.40
2017-10-25T17:43:55.538Z,12.07
2017-10-25T17:46:25.433Z,14.93
2017-10-25T17:48:55.316Z,11.00
2017-10-25T17:51:25.225Z,11.77
2017-10-25T17:53:55.080Z,13.80
2017-10-25T17:56:25.132Z,8.60
2017-10-25T17:58:55.010Z,12.33
2017-10-25T18:01:24.918Z,13.60
2017-10-25T18:03:54.847Z,9.63
2017-10-25T18:06:24.914Z,11.60
2017-10-25T18:08:54.930Z,13.00
2017-10-25T18:11:25.012Z,6.23
2017-10-25T18:13:54.902Z,8.57
2017-10-25T18:16:24.821Z,16.33
2017-10-25T18:18:54.703Z,7.73
2017-10-25T18:21:25.120Z,11.60
2017-10-25T18:23:55.004Z,9.50
2017-10-25T18:26:24.889Z,11.70
2017-10-25T18:28:54.762Z,11.03
2017-10-25T18:31:24.783Z,13.33
2017-10-25T18:33:54.683Z,16.37
2017-10-25T18:36:24.571Z,10.20
2017-10-25T18:38:54.548Z,11.80
2017-10-25T18:41:24.546Z,13.57
2017-10-25T18:43:54.479Z,8.50
2017-10-25T18:46:24.363Z,12.70
2017-10-25T18:48:54.233Z,21.33
2017-10-25T18:51:24.351Z,8.80
2017-10-25T18:53:54.863Z,14.93
2017-10-25T18:56:24.826Z,10.53
2017-10-25T18:58:54.773Z,10.27
2017-10-25T19:01:25.680Z,9.20
2017-10-25T19:03:55.591Z,11.00
2017-10-25T19:06:25.480Z,10.50
2017-10-25T19:08:55.722Z,11.43
2017-10-25T19:11:25.681Z,13.77
2017-10-25T19:13:55.604Z,10.50
2017-10-25T19:16:25.497Z,16.83
2017-10-25T19:18:55.381Z,11.00
2017-10-25T19:21:25.464Z,11.50
2017-10-25T19:23:55.367Z,10.00
2017-10-25T19:26:25.340Z,12.87
2017-10-25T19:28:55.234Z,11.30
2017-10-25T19:31:25.239Z,14.40
2017-10-25T19:33:55.206Z,12.10
2017-10-25T19:36:25.123Z,10.73
2017-10-25T19:38:54.998Z,18.27
2017-10-25T19:41:24.927Z,14.73
2017-10-25T19:43:54.831Z,16.83
2017-10-25T19:46:24.714Z,12.90
2017-10-25T19:48:54.611Z,13.00
2017-10-25T19:51:24.562Z,17.50
2017-10-25T19:53:54.434Z,16.23
2017-10-25T19:56:24.536Z,12.10
2017-10-25T19:58:54.407Z,13.97
2017-10-25T20:01:24.307Z,11.53
2017-10-25T20:03:54.199Z,12.00
2017-10-25T20:06:24.171Z,13.27
2017-10-25T20:08:54.070Z,8.50
2017-10-25T20:11:23.997Z,12.07
2017-10-25T20:13:53.895Z,12.40
2017-10-25T20:16:23.769Z,14.10
2017-10-25T20:18:53.733Z,14.53
2017-10-25T20:21:23.599Z,16.03
2017-10-25T20:23:53.507Z,12.90
2017-10-25T20:26:23.566Z,13.20
2017-10-25T20:28:53.456Z,8.83
2017-10-25T20:31:23.364Z,6.20
2017-10-25T20:33:53.242Z,12.80
2017-10-25T20:36:23.250Z,13.83
2017-10-25T20:38:53.216Z,25.37
2017-10-25T20:41:23.107Z,12.97
2017-10-25T20:43:53.063Z,17.77
2017-10-25T20:46:23.051Z,18.30
2017-10-25T20:48:52.958Z,11.47
2017-10-25T20:51:22.849Z,11.93
2017-10-25T20:53:52.735Z,18.57
2017-10-25T20:56:22.664Z,13.90
2017-10-25T20:58:52.575Z,12.00
2017-10-25T21:01:22.482Z,11.33
2017-10-25T21:03:52.340Z,16.10
2017-10-25T21:06:22.247Z,20.77
2017-10-25T21:08:52.122Z,14.90
2017-10-25T21:11:22.043Z,16.97
2017-10-25T21:13:51.945Z,15.47
2017-10-25T21:16:22.663Z,16.07
2017-10-25T21:18:52.708Z,19.50
2017-10-25T21:21:22.576Z,12.30
2017-10-25T21:23:52.475Z,11.63
2017-10-25T21:26:22.349Z,17.47
2017-10-25T21:28:52.234Z,17.87
2017-10-25T21:31:22.104Z,14.40
2017-10-25T21:33:51.973Z,11.63
2017-10-25T21:36:22.527Z,9.50
2017-10-25T21:38:52.441Z,22.10
2017-10-25T21:41:22.334Z,17.43
2017-10-25T21:43:52.199Z,10.23
2017-10-25T21:46:22.099Z,10.70
2017-10-25T21:48:51.971Z,11.97
2017-10-25T21:51:21.842Z,13.50
2017-10-25T21:53:51.719Z,18.03
2017-10-25T21:56:21.642Z,20.47
2017-10-25T21:58:51.559Z,7.23
2017-10-25T22:01:21.432Z,15.10
2017-10-25T22:03:51.350Z,14.00
2017-10-25T22:06:21.213Z,12.67
2017-10-25T22:08:51.066Z,16.47
2017-10-25T22:11:20.915Z,11.80
2017-10-25T22:13:50.777Z,9.63
2017-10-25T22:16:20.664Z,17.57
2017-10-25T22:18:50.565Z,11.20
2017-10-25T22:21:20.590Z,6.27
2017-10-25T22:23:50.450Z,13.63
2017-10-25T22:26:20.338Z,21.17
2017-10-25T22:28:50.261Z,11.00
2017-10-25T22:31:20.138Z,16.30
2017-10-25T22:33:49.986Z,14.03
2017-10-25T22:36:19.841Z,11.87
2017-10-25T22:38:49.710Z,10.43
2017-10-25T22:41:19.566Z,9.13
2017-10-25T22:43:49.479Z,10.97
2017-10-25T22:46:19.413Z,12.17
2017-10-25T22:48:49.296Z,12.30
2017-10-25T22:51:19.162Z,21.70
2017-10-25T22:53:49.046Z,17.93
2017-10-25T22:56:18.931Z,12.00
2017-10-25T22:58:48.800Z,10.33
2017-10-25T23:01:18.731Z,13.67
2017-10-25T23:03:48.590Z,11.30
2017-10-25T23:06:18.485Z,17.87
2017-10-25T23:08:48.413Z,17.67
2017-10-25T23:11:18.285Z,15.03
2017-10-25T23:13:48.138Z,11.53
2017-10-25T23:16:18.006Z,11.77
2017-10-25T23:18:47.883Z,11.77
2017-10-25T23:21:17.728Z,23.13
2017-10-25T23:23:47.631Z,13.97
2017-10-25T23:26:17.475Z,17.53
2017-10-25T23:28:47.366Z,17.50
2017-10-25T23:31:17.209Z,17.47
2017-10-25T23:33:47.055Z,12.80
2017-10-25T23:36:16.911Z,15.93
2017-10-25T23:38:46.893Z,25.77
2017-10-25T23:41:16.778Z,15.20
2017-10-25T23:43:46.646Z,15.57
2017-10-25T23:46:16.566Z,8.97
2017-10-25T23:48:46.430Z,14.30
2017-10-25T23:51:16.299Z,8.67
2017-10-25T23:53:46.209Z,12.73
2017-10-25T23:56:16.066Z,19.83
2017-10-25T23:58:45.976Z,8.07
